sensor_id;sensor_type;location;lat;lon;timestamp;P1;durP1;ratioP1;P2;durP2;ratioP2
75408;SDS011;63979;55.644;37.734;2023-10-19T00:03:49;5.03;;;3.60;;
75408;SDS011;63979;55.644;37.734;2023-10-19T00:08:50;5.88;;;4.22;;
75408;SDS011;63979;55.644;37.734;2023-10-19T00:13:52;4.90;;;4.32;;
75408;SDS011;63979;55.644;37.734;2023-10-19T00:18:54;5.07;;;3.88;;
75408;SDS011;63979;55.644;37.734;2023-10-19T00:23:59;6.15;;;4.10;;
75408;SDS011;63979;55.644;37.734;2023-10-19T00:29:04;4.57;;;3.90;;
75408;SDS011;63979;55.644;37.734;2023-10-19T00:34:18;5.75;;;3.40;;
75408;SDS011;63979;55.644;37.734;2023-10-19T00:44:22;5.90;;;4.15;;
75408;SDS011;63979;55.644;37.734;2023-10-19T00:49:36;6.50;;;4.88;;
75408;SDS011;63979;55.644;37.734;2023-10-19T00:54:39;5.40;;;4.30;;
75408;SDS011;63979;55.644;37.734;2023-10-19T01:00:03;4.95;;;4.13;;
75408;SDS011;63979;55.644;37.734;2023-10-19T01:05:21;4.90;;;4.40;;
75408;SDS011;63979;55.644;37.734;2023-10-19T01:10:22;6.05;;;4.68;;
75408;SDS011;63979;55.644;37.734;2023-10-19T01:15:24;5.30;;;3.65;;
75408;SDS011;63979;55.644;37.734;2023-10-19T01:20:28;6.28;;;4.45;;
75408;SDS011;63979;55.644;37.734;2023-10-19T01:25:30;4.88;;;4.03;;
75408;SDS011;63979;55.644;37.734;2023-10-19T01:30:35;5.88;;;4.65;;
75408;SDS011;63979;55.644;37.734;2023-10-19T01:35:37;6.03;;;4.32;;
75408;SDS011;63979;55.644;37.734;2023-10-19T01:40:57;6.25;;;4.78;;
75408;SDS011;63979;55.644;37.734;2023-10-19T01:46:00;5.10;;;4.32;;
75408;SDS011;63979;55.644;37.734;2023-10-19T01:51:13;6.72;;;4.20;;
75408;SDS011;63979;55.644;37.734;2023-10-19T01:56:14;8.32;;;5.10;;
75408;SDS011;63979;55.644;37.734;2023-10-19T02:01:17;8.27;;;5.50;;
75408;SDS011;63979;55.644;37.734;2023-10-19T02:06:28;7.22;;;5.57;;
75408;SDS011;63979;55.644;37.734;2023-10-19T02:11:35;7.28;;;5.47;;
75408;SDS011;63979;55.644;37.734;2023-10-19T02:16:42;7.07;;;5.53;;
75408;SDS011;63979;55.644;37.734;2023-10-19T02:21:44;7.65;;;5.45;;
75408;SDS011;63979;55.644;37.734;2023-10-19T02:26:52;6.78;;;4.13;;
75408;SDS011;63979;55.644;37.734;2023-10-19T02:37:04;7.03;;;4.90;;
75408;SDS011;63979;55.644;37.734;2023-10-19T02:42:04;7.43;;;6.03;;
75408;SDS011;63979;55.644;37.734;2023-10-19T02:47:05;7.20;;;5.00;;
75408;SDS011;63979;55.644;37.734;2023-10-19T02:52:09;6.30;;;5.10;;
75408;SDS011;63979;55.644;37.734;2023-10-19T02:57:13;8.23;;;5.32;;
75408;SDS011;63979;55.644;37.734;2023-10-19T03:02:14;7.60;;;4.85;;
75408;SDS011;63979;55.644;37.734;2023-10-19T03:07:15;7.00;;;5.40;;
75408;SDS011;63979;55.644;37.734;2023-10-19T03:12:15;7.57;;;5.15;;
75408;SDS011;63979;55.644;37.734;2023-10-19T03:17:17;6.25;;;4.90;;
75408;SDS011;63979;55.644;37.734;2023-10-19T03:22:18;6.00;;;5.15;;
75408;SDS011;63979;55.644;37.734;2023-10-19T03:27:19;5.60;;;5.03;;
75408;SDS011;63979;55.644;37.734;2023-10-19T03:32:23;5.57;;;4.63;;
75408;SDS011;63979;55.644;37.734;2023-10-19T03:42:35;7.35;;;5.75;;
75408;SDS011;63979;55.644;37.734;2023-10-19T03:47:41;6.30;;;5.63;;
75408;SDS011;63979;55.644;37.734;2023-10-19T03:52:44;8.40;;;5.45;;
75408;SDS011;63979;55.644;37.734;2023-10-19T03:57:45;7.18;;;5.65;;
75408;SDS011;63979;55.644;37.734;2023-10-19T04:02:55;8.05;;;4.88;;
75408;SDS011;63979;55.644;37.734;2023-10-19T04:07:56;8.45;;;5.53;;
75408;SDS011;63979;55.644;37.734;2023-10-19T04:12:58;6.18;;;4.47;;
75408;SDS011;63979;55.644;37.734;2023-10-19T04:18:02;3.92;;;3.53;;
75408;SDS011;63979;55.644;37.734;2023-10-19T04:23:09;4.63;;;3.80;;
75408;SDS011;63979;55.644;37.734;2023-10-19T04:28:15;5.35;;;3.55;;
75408;SDS011;63979;55.644;37.734;2023-10-19T04:33:17;5.68;;;4.43;;
75408;SDS011;63979;55.644;37.734;2023-10-19T04:38:19;7.25;;;4.30;;
75408;SDS011;63979;55.644;37.734;2023-10-19T04:43:20;5.05;;;4.30;;
75408;SDS011;63979;55.644;37.734;2023-10-19T04:48:21;5.43;;;4.25;;
75408;SDS011;63979;55.644;37.734;2023-10-19T04:53:22;4.65;;;4.22;;
75408;SDS011;63979;55.644;37.734;2023-10-19T04:58:23;5.70;;;3.88;;
75408;SDS011;63979;55.644;37.734;2023-10-19T05:03:25;5.65;;;4.43;;
75408;SDS011;63979;55.644;37.734;2023-10-19T05:08:26;4.70;;;3.97;;
75408;SDS011;63979;55.644;37.734;2023-10-19T05:13:28;5.05;;;4.05;;
75408;SDS011;63979;55.644;37.734;2023-10-19T05:18:30;6.00;;;4.90;;
75408;SDS011;63979;55.644;37.734;2023-10-19T05:23:31;5.05;;;3.72;;
75408;SDS011;63979;55.644;37.734;2023-10-19T05:28:32;4.55;;;4.07;;
75408;SDS011;63979;55.644;37.734;2023-10-19T05:33:33;4.68;;;3.92;;
75408;SDS011;63979;55.644;37.734;2023-10-19T05:38:34;6.75;;;4.80;;
75408;SDS011;63979;55.644;37.734;2023-10-19T05:43:35;5.93;;;4.72;;
75408;SDS011;63979;55.644;37.734;2023-10-19T05:48:36;6.78;;;4.65;;
75408;SDS011;63979;55.644;37.734;2023-10-19T05:53:37;8.63;;;5.32;;
75408;SDS011;63979;55.644;37.734;2023-10-19T05:58:37;5.50;;;4.47;;
75408;SDS011;63979;55.644;37.734;2023-10-19T06:03:38;6.60;;;4.72;;
75408;SDS011;63979;55.644;37.734;2023-10-19T06:08:42;5.20;;;4.20;;
75408;SDS011;63979;55.644;37.734;2023-10-19T06:13:42;4.28;;;3.63;;
75408;SDS011;63979;55.644;37.734;2023-10-19T06:18:43;5.40;;;4.57;;
75408;SDS011;63979;55.644;37.734;2023-10-19T06:23:44;5.72;;;4.40;;
75408;SDS011;63979;55.644;37.734;2023-10-19T06:28:45;5.15;;;4.10;;
75408;SDS011;63979;55.644;37.734;2023-10-19T06:33:45;4.03;;;3.25;;
75408;SDS011;63979;55.644;37.734;2023-10-19T06:38:46;5.97;;;4.32;;
75408;SDS011;63979;55.644;37.734;2023-10-19T06:43:48;8.50;;;5.90;;
75408;SDS011;63979;55.644;37.734;2023-10-19T06:48:49;6.28;;;4.38;;
75408;SDS011;63979;55.644;37.734;2023-10-19T06:53:52;4.35;;;2.92;;
75408;SDS011;63979;55.644;37.734;2023-10-19T06:58:53;5.13;;;3.53;;
75408;SDS011;63979;55.644;37.734;2023-10-19T07:03:54;3.80;;;3.20;;
75408;SDS011;63979;55.644;37.734;2023-10-19T07:08:56;6.28;;;3.22;;
75408;SDS011;63979;55.644;37.734;2023-10-19T07:13:58;4.85;;;3.65;;
75408;SDS011;63979;55.644;37.734;2023-10-19T07:18:59;6.82;;;4.15;;
75408;SDS011;63979;55.644;37.734;2023-10-19T07:24:01;5.15;;;4.00;;
75408;SDS011;63979;55.644;37.734;2023-10-19T07:29:05;6.32;;;5.00;;
75408;SDS011;63979;55.644;37.734;2023-10-19T07:34:10;6.70;;;3.67;;
75408;SDS011;63979;55.644;37.734;2023-10-19T07:39:15;2.63;;;2.40;;
75408;SDS011;63979;55.644;37.734;2023-10-19T07:44:19;3.58;;;2.90;;
75408;SDS011;63979;55.644;37.734;2023-10-19T07:49:20;4.28;;;2.35;;
75408;SDS011;63979;55.644;37.734;2023-10-19T07:54:22;2.97;;;2.63;;
75408;SDS011;63979;55.644;37.734;2023-10-19T07:59:23;2.80;;;2.22;;
75408;SDS011;63979;55.644;37.734;2023-10-19T08:04:24;3.50;;;2.67;;
75408;SDS011;63979;55.644;37.734;2023-10-19T08:09:25;2.05;;;1.85;;
75408;SDS011;63979;55.644;37.734;2023-10-19T08:14:32;3.80;;;2.80;;
75408;SDS011;63979;55.644;37.734;2023-10-19T08:19:33;3.10;;;2.10;;
75408;SDS011;63979;55.644;37.734;2023-10-19T08:24:34;5.30;;;2.92;;
75408;SDS011;63979;55.644;37.734;2023-10-19T08:29:35;4.10;;;2.88;;
75408;SDS011;63979;55.644;37.734;2023-10-19T08:34:36;3.58;;;3.08;;
75408;SDS011;63979;55.644;37.734;2023-10-19T08:39:37;5.00;;;2.45;;
75408;SDS011;63979;55.644;37.734;2023-10-19T08:44:37;3.60;;;2.75;;
75408;SDS011;63979;55.644;37.734;2023-10-19T08:49:39;3.95;;;3.00;;
75408;SDS011;63979;55.644;37.734;2023-10-19T08:54:39;4.13;;;2.72;;
75408;SDS011;63979;55.644;37.734;2023-10-19T08:59:40;5.22;;;3.22;;
75408;SDS011;63979;55.644;37.734;2023-10-19T09:04:41;6.90;;;3.38;;
75408;SDS011;63979;55.644;37.734;2023-10-19T09:09:44;6.18;;;3.53;;
75408;SDS011;63979;55.644;37.734;2023-10-19T09:14:47;3.40;;;2.78;;
75408;SDS011;63979;55.644;37.734;2023-10-19T09:19:50;4.10;;;2.70;;
75408;SDS011;63979;55.644;37.734;2023-10-19T09:24:51;3.28;;;2.78;;
75408;SDS011;63979;55.644;37.734;2023-10-19T09:29:56;3.85;;;2.75;;
75408;SDS011;63979;55.644;37.734;2023-10-19T09:34:56;4.03;;;2.65;;
75408;SDS011;63979;55.644;37.734;2023-10-19T09:39:58;6.75;;;3.30;;
75408;SDS011;63979;55.644;37.734;2023-10-19T09:44:59;5.63;;;2.10;;
75408;SDS011;63979;55.644;37.734;2023-10-19T09:50:06;4.32;;;1.95;;
75408;SDS011;63979;55.644;37.734;2023-10-19T09:55:22;1.55;;;1.30;;
75408;SDS011;63979;55.644;37.734;2023-10-19T10:00:29;2.58;;;1.63;;
75408;SDS011;63979;55.644;37.734;2023-10-19T10:10:38;2.80;;;1.98;;
75408;SDS011;63979;55.644;37.734;2023-10-19T10:15:40;3.58;;;2.08;;
75408;SDS011;63979;55.644;37.734;2023-10-19T10:20:41;3.90;;;2.60;;
75408;SDS011;63979;55.644;37.734;2023-10-19T10:25:45;2.63;;;1.88;;
75408;SDS011;63979;55.644;37.734;2023-10-19T10:41:23;4.75;;;2.63;;
75408;SDS011;63979;55.644;37.734;2023-10-19T10:46:32;2.63;;;2.22;;
75408;SDS011;63979;55.644;37.734;2023-10-19T10:51:33;8.98;;;5.60;;
75408;SDS011;63979;55.644;37.734;2023-10-19T10:56:39;3.30;;;2.42;;
75408;SDS011;63979;55.644;37.734;2023-10-19T11:01:40;6.45;;;3.10;;
75408;SDS011;63979;55.644;37.734;2023-10-19T11:06:47;6.97;;;3.25;;
75408;SDS011;63979;55.644;37.734;2023-10-19T11:17:11;5.80;;;3.97;;
75408;SDS011;63979;55.644;37.734;2023-10-19T11:22:14;7.28;;;3.75;;
75408;SDS011;63979;55.644;37.734;2023-10-19T11:27:21;4.63;;;2.78;;
75408;SDS011;63979;55.644;37.734;2023-10-19T11:32:26;4.40;;;2.72;;
75408;SDS011;63979;55.644;37.734;2023-10-19T11:37:48;3.92;;;2.03;;
75408;SDS011;63979;55.644;37.734;2023-10-19T11:42:50;3.05;;;2.38;;
75408;SDS011;63979;55.644;37.734;2023-10-19T11:47:52;3.10;;;2.20;;
75408;SDS011;63979;55.644;37.734;2023-10-19T11:52:53;3.95;;;2.63;;
75408;SDS011;63979;55.644;37.734;2023-10-19T12:02:57;2.03;;;1.73;;
75408;SDS011;63979;55.644;37.734;2023-10-19T12:07:58;2.10;;;1.50;;
75408;SDS011;63979;55.644;37.734;2023-10-19T12:12:58;2.22;;;1.88;;
75408;SDS011;63979;55.644;37.734;2023-10-19T12:17:59;2.70;;;2.10;;
75408;SDS011;63979;55.644;37.734;2023-10-19T12:23:03;3.28;;;2.60;;
75408;SDS011;63979;55.644;37.734;2023-10-19T12:28:05;4.30;;;2.17;;
75408;SDS011;63979;55.644;37.734;2023-10-19T12:33:07;3.92;;;2.42;;
75408;SDS011;63979;55.644;37.734;2023-10-19T12:38:12;2.95;;;2.33;;
75408;SDS011;63979;55.644;37.734;2023-10-19T12:43:17;2.85;;;2.55;;
75408;SDS011;63979;55.644;37.734;2023-10-19T12:48:19;1.27;;;0.90;;
75408;SDS011;63979;55.644;37.734;2023-10-19T12:53:25;1.00;;;0.40;;
75408;SDS011;63979;55.644;37.734;2023-10-19T12:58:27;0.82;;;0.70;;
75408;SDS011;63979;55.644;37.734;2023-10-19T13:03:29;1.15;;;0.98;;
75408;SDS011;63979;55.644;37.734;2023-10-19T13:08:32;1.17;;;1.00;;
75408;SDS011;63979;55.644;37.734;2023-10-19T13:13:33;2.88;;;1.15;;
75408;SDS011;63979;55.644;37.734;2023-10-19T13:18:36;1.05;;;0.80;;
75408;SDS011;63979;55.644;37.734;2023-10-19T13:23:37;1.83;;;1.42;;
75408;SDS011;63979;55.644;37.734;2023-10-19T13:28:38;1.98;;;1.52;;
75408;SDS011;63979;55.644;37.734;2023-10-19T13:33:39;2.20;;;1.38;;
75408;SDS011;63979;55.644;37.734;2023-10-19T13:38:44;4.55;;;1.88;;
75408;SDS011;63979;55.644;37.734;2023-10-19T13:43:45;1.70;;;1.10;;
75408;SDS011;63979;55.644;37.734;2023-10-19T13:48:47;1.50;;;1.13;;
75408;SDS011;63979;55.644;37.734;2023-10-19T13:53:48;2.17;;;1.35;;
75408;SDS011;63979;55.644;37.734;2023-10-19T13:58:51;1.33;;;1.10;;
75408;SDS011;63979;55.644;37.734;2023-10-19T14:03:52;3.78;;;1.35;;
75408;SDS011;63979;55.644;37.734;2023-10-19T14:08:55;1.33;;;1.15;;
75408;SDS011;63979;55.644;37.734;2023-10-19T14:13:56;3.38;;;1.40;;
75408;SDS011;63979;55.644;37.734;2023-10-19T14:18:56;2.63;;;1.83;;
75408;SDS011;63979;55.644;37.734;2023-10-19T14:23:57;2.42;;;1.67;;
75408;SDS011;63979;55.644;37.734;2023-10-19T14:28:58;2.92;;;1.80;;
75408;SDS011;63979;55.644;37.734;2023-10-19T14:33:59;3.78;;;1.80;;
75408;SDS011;63979;55.644;37.734;2023-10-19T14:39:00;4.25;;;1.60;;
75408;SDS011;63979;55.644;37.734;2023-10-19T14:44:00;6.22;;;3.13;;
75408;SDS011;63979;55.644;37.734;2023-10-19T14:49:03;8.27;;;3.67;;
75408;SDS011;63979;55.644;37.734;2023-10-19T14:54:04;7.65;;;2.97;;
75408;SDS011;63979;55.644;37.734;2023-10-19T14:59:05;6.38;;;3.33;;
75408;SDS011;63979;55.644;37.734;2023-10-19T15:04:06;3.65;;;2.55;;
75408;SDS011;63979;55.644;37.734;2023-10-19T15:09:06;4.97;;;2.83;;
75408;SDS011;63979;55.644;37.734;2023-10-19T15:14:15;7.57;;;3.20;;
75408;SDS011;63979;55.644;37.734;2023-10-19T15:19:16;5.30;;;2.88;;
75408;SDS011;63979;55.644;37.734;2023-10-19T15:24:19;6.30;;;2.42;;
75408;SDS011;63979;55.644;37.734;2023-10-19T15:29:20;5.85;;;2.78;;
75408;SDS011;63979;55.644;37.734;2023-10-19T15:34:20;3.28;;;2.40;;
75408;SDS011;63979;55.644;37.734;2023-10-19T15:39:21;5.65;;;3.40;;
75408;SDS011;63979;55.644;37.734;2023-10-19T15:44:23;3.97;;;2.53;;
75408;SDS011;63979;55.644;37.734;2023-10-19T15:49:26;3.95;;;2.38;;
75408;SDS011;63979;55.644;37.734;2023-10-19T15:54:27;4.72;;;2.95;;
75408;SDS011;63979;55.644;37.734;2023-10-19T15:59:28;4.95;;;3.13;;
75408;SDS011;63979;55.644;37.734;2023-10-19T16:04:29;5.60;;;3.10;;
75408;SDS011;63979;55.644;37.734;2023-10-19T16:09:29;6.72;;;3.92;;
75408;SDS011;63979;55.644;37.734;2023-10-19T16:14:30;4.03;;;2.83;;
75408;SDS011;63979;55.644;37.734;2023-10-19T16:19:31;4.38;;;2.90;;
75408;SDS011;63979;55.644;37.734;2023-10-19T16:24:32;6.38;;;3.60;;
75408;SDS011;63979;55.644;37.734;2023-10-19T16:29:34;6.10;;;3.25;;
75408;SDS011;63979;55.644;37.734;2023-10-19T16:34:35;4.50;;;2.92;;
75408;SDS011;63979;55.644;37.734;2023-10-19T16:39:37;4.68;;;3.00;;
75408;SDS011;63979;55.644;37.734;2023-10-19T16:44:38;3.67;;;2.90;;
75408;SDS011;63979;55.644;37.734;2023-10-19T16:49:38;4.55;;;3.22;;
75408;SDS011;63979;55.644;37.734;2023-10-19T16:54:39;7.63;;;4.40;;
75408;SDS011;63979;55.644;37.734;2023-10-19T16:59:40;7.90;;;3.95;;
75408;SDS011;63979;55.644;37.734;2023-10-19T17:04:41;7.18;;;4.40;;
75408;SDS011;63979;55.644;37.734;2023-10-19T17:09:41;8.10;;;5.38;;
75408;SDS011;63979;55.644;37.734;2023-10-19T17:14:42;6.85;;;4.45;;
75408;SDS011;63979;55.644;37.734;2023-10-19T17:19:44;7.90;;;4.63;;
75408;SDS011;63979;55.644;37.734;2023-10-19T17:24:46;11.07;;;6.53;;
75408;SDS011;63979;55.644;37.734;2023-10-19T17:29:47;7.63;;;5.15;;
75408;SDS011;63979;55.644;37.734;2023-10-19T17:34:48;9.40;;;5.03;;
75408;SDS011;63979;55.644;37.734;2023-10-19T17:39:49;6.47;;;4.95;;
75408;SDS011;63979;55.644;37.734;2023-10-19T17:44:50;7.00;;;4.95;;
75408;SDS011;63979;55.644;37.734;2023-10-19T17:49:51;8.25;;;4.97;;
75408;SDS011;63979;55.644;37.734;2023-10-19T17:54:52;10.32;;;4.63;;
75408;SDS011;63979;55.644;37.734;2023-10-19T17:59:53;7.78;;;4.45;;
75408;SDS011;63979;55.644;37.734;2023-10-19T18:04:54;9.60;;;5.05;;
75408;SDS011;63979;55.644;37.734;2023-10-19T18:09:55;8.93;;;5.38;;
75408;SDS011;63979;55.644;37.734;2023-10-19T18:14:56;8.02;;;4.82;;
75408;SDS011;63979;55.644;37.734;2023-10-19T18:19:59;9.23;;;4.63;;
75408;SDS011;63979;55.644;37.734;2023-10-19T18:25:01;6.78;;;4.28;;
75408;SDS011;63979;55.644;37.734;2023-10-19T18:30:04;5.35;;;3.78;;
75408;SDS011;63979;55.644;37.734;2023-10-19T18:35:10;6.82;;;3.00;;
75408;SDS011;63979;55.644;37.734;2023-10-19T18:40:11;4.05;;;3.50;;
75408;SDS011;63979;55.644;37.734;2023-10-19T18:45:13;5.70;;;3.42;;
75408;SDS011;63979;55.644;37.734;2023-10-19T18:50:14;4.47;;;3.45;;
75408;SDS011;63979;55.644;37.734;2023-10-19T18:55:15;4.70;;;3.22;;
75408;SDS011;63979;55.644;37.734;2023-10-19T19:00:22;5.75;;;3.85;;
75408;SDS011;63979;55.644;37.734;2023-10-19T19:05:27;9.00;;;3.17;;
75408;SDS011;63979;55.644;37.734;2023-10-19T19:10:29;3.53;;;2.25;;
75408;SDS011;63979;55.644;37.734;2023-10-19T19:15:33;2.83;;;2.15;;
75408;SDS011;63979;55.644;37.734;2023-10-19T19:20:37;5.95;;;2.70;;
75408;SDS011;63979;55.644;37.734;2023-10-19T19:25:39;4.35;;;2.42;;
75408;SDS011;63979;55.644;37.734;2023-10-19T19:30:40;3.28;;;2.03;;
75408;SDS011;63979;55.644;37.734;2023-10-19T19:35:41;3.30;;;2.28;;
75408;SDS011;63979;55.644;37.734;2023-10-19T19:40:42;3.72;;;2.42;;
75408;SDS011;63979;55.644;37.734;2023-10-19T19:45:43;3.30;;;2.53;;
75408;SDS011;63979;55.644;37.734;2023-10-19T19:50:44;3.38;;;2.63;;
75408;SDS011;63979;55.644;37.734;2023-10-19T19:55:45;2.97;;;1.98;;
75408;SDS011;63979;55.644;37.734;2023-10-19T20:00:47;4.25;;;2.53;;
75408;SDS011;63979;55.644;37.734;2023-10-19T20:05:47;4.97;;;2.78;;
75408;SDS011;63979;55.644;37.734;2023-10-19T20:10:48;4.43;;;2.92;;
75408;SDS011;63979;55.644;37.734;2023-10-19T20:15:50;4.72;;;3.10;;
75408;SDS011;63979;55.644;37.734;2023-10-19T20:20:51;4.22;;;2.50;;
75408;SDS011;63979;55.644;37.734;2023-10-19T20:25:53;4.60;;;2.70;;
75408;SDS011;63979;55.644;37.734;2023-10-19T20:30:53;7.15;;;3.20;;
75408;SDS011;63979;55.644;37.734;2023-10-19T20:35:54;4.70;;;3.00;;
75408;SDS011;63979;55.644;37.734;2023-10-19T20:40:55;4.07;;;2.53;;
75408;SDS011;63979;55.644;37.734;2023-10-19T20:45:55;5.07;;;3.10;;
75408;SDS011;63979;55.644;37.734;2023-10-19T20:50:56;3.58;;;2.50;;
75408;SDS011;63979;55.644;37.734;2023-10-19T20:56:00;3.75;;;2.60;;
75408;SDS011;63979;55.644;37.734;2023-10-19T21:01:05;4.45;;;2.97;;
75408;SDS011;63979;55.644;37.734;2023-10-19T21:11:16;3.45;;;2.97;;
75408;SDS011;63979;55.644;37.734;2023-10-19T21:16:18;4.20;;;2.95;;
75408;SDS011;63979;55.644;37.734;2023-10-19T21:21:18;4.57;;;3.25;;
75408;SDS011;63979;55.644;37.734;2023-10-19T21:26:20;6.55;;;3.33;;
75408;SDS011;63979;55.644;37.734;2023-10-19T21:31:21;9.07;;;3.25;;
75408;SDS011;63979;55.644;37.734;2023-10-19T21:36:22;4.72;;;3.17;;
75408;SDS011;63979;55.644;37.734;2023-10-19T21:41:24;3.63;;;2.90;;
75408;SDS011;63979;55.644;37.734;2023-10-19T21:46:26;5.35;;;2.88;;
75408;SDS011;63979;55.644;37.734;2023-10-19T21:51:27;5.72;;;3.00;;
75408;SDS011;63979;55.644;37.734;2023-10-19T21:56:28;7.18;;;3.38;;
75408;SDS011;63979;55.644;37.734;2023-10-19T22:01:29;5.00;;;3.35;;
75408;SDS011;63979;55.644;37.734;2023-10-19T22:06:30;5.57;;;3.40;;
75408;SDS011;63979;55.644;37.734;2023-10-19T22:11:32;7.13;;;3.45;;
75408;SDS011;63979;55.644;37.734;2023-10-19T22:16:34;5.40;;;3.03;;
75408;SDS011;63979;55.644;37.734;2023-10-19T22:21:35;4.75;;;2.85;;
75408;SDS011;63979;55.644;37.734;2023-10-19T22:26:39;6.30;;;3.33;;
75408;SDS011;63979;55.644;37.734;2023-10-19T22:31:40;4.00;;;2.83;;
75408;SDS011;63979;55.644;37.734;2023-10-19T22:36:41;5.35;;;3.20;;
75408;SDS011;63979;55.644;37.734;2023-10-19T22:41:42;6.53;;;3.58;;
75408;SDS011;63979;55.644;37.734;2023-10-19T22:46:43;5.47;;;3.70;;
75408;SDS011;63979;55.644;37.734;2023-10-19T22:51:44;7.35;;;2.95;;
75408;SDS011;63979;55.644;37.734;2023-10-19T22:56:44;6.07;;;3.85;;
75408;SDS011;63979;55.644;37.734;2023-10-19T23:01:45;7.07;;;4.55;;
75408;SDS011;63979;55.644;37.734;2023-10-19T23:06:46;9.73;;;5.68;;
75408;SDS011;63979;55.644;37.734;2023-10-19T23:11:46;10.40;;;4.78;;
75408;SDS011;63979;55.644;37.734;2023-10-19T23:17:07;7.30;;;5.20;;
75408;SDS011;63979;55.644;37.734;2023-10-19T23:22:09;7.65;;;5.15;;
75408;SDS011;63979;55.644;37.734;2023-10-19T23:27:10;7.78;;;4.82;;
75408;SDS011;63979;55.644;37.734;2023-10-19T23:32:13;7.72;;;5.57;;
75408;SDS011;63979;55.644;37.734;2023-10-19T23:37:17;7.65;;;5.40;;
75408;SDS011;63979;55.644;37.734;2023-10-19T23:42:18;6.68;;;4.88;;
75408;SDS011;63979;55.644;37.734;2023-10-19T23:47:18;7.57;;;4.93;;
75408;SDS011;63979;55.644;37.734;2023-10-19T23:52:19;9.23;;;4.75;;
75408;SDS011;63979;55.644;37.734;2023-10-19T23:57:20;11.95;;;5.95;;
